リュブリャナ空港の過去48時間の天気

リュブリャナ空港 (Ljubljana / Brnik)

現在時刻: 5/26 04:42 CEST (5/26 02:42 UTC) 以下の時間は現地時間です。

過去48時間のMETAR気象情報
時間 風向 風速(m/s) 視程 気温(℃) 湿度(%) 気圧(hPa) 天気現象
26 04:30 2 10km以上 15 88 1022
26 04:00 2 10km以上 15 88 1022
26 03:30 南東 2 10km以上 16 77 1022
26 03:00 南東 2 10km以上 16 77 1022
26 02:30 東南東 3 10km以上 16 82 1021 周辺でしゅう雨
26 02:00 東南東 3 10km以上 16 82 1021 周辺でしゅう雨
26 01:30 南東 4 10km以上 17 77 1021 周辺でしゅう雨
26 01:00 東南東 6 10km以上 17 77 1020
26 00:30 不定 1 10km以上 17 83 1019
26 00:00 不定 1 10km以上 17 83 1019
25 23:30 4 10km以上 17 83 1019
25 23:00 東南東 3 10km以上 17 83 1018
25 22:30 2 10km以上 17 94 1018
25 22:00 北東 2 10km以上 17 88 1017
25 21:30 北西 2 10km以上 18 83 1017
25 21:00 北西 3 10km以上 19 83 1016
25 20:30 1 10km以上 20 83 1016
25 20:00 南南西 2 10km以上 21 78 1015
25 19:30 南西 2 10km以上 22 69 1015
25 19:00 南南西 3 10km以上 22 69 1014
25 18:30 南南西 3 10km以上 22 73 1014
25 18:00 南南西 4 10km以上 23 65 1013
25 17:30 4 10km以上 23 69 1013 弱いしゅう雨
25 17:00 5 10km以上 23 65 1013
25 16:30 5 10km以上 24 65 1013
25 16:00 南南西 5 10km以上 25 54 1013 弱いしゅう雨
25 15:30 5 10km以上 26 54 1013
25 15:00 西 2 10km以上 26 65 1012
25 14:30 不定 1 10km以上 25 65 1013
25 14:00 静穏 0 10km以上 24 74 1013
25 13:30 西南西 1 10km以上 24 69 1013
25 13:00 東南東 1 10km以上 22 83 1013 弱いしゅう雨
25 12:30 2 10km以上 23 65 1013 周辺で雷
25 12:00 北東 1 10km以上 24 57 1013
25 11:30 不定 1 10km以上 23 57 1013
25 11:00 不定 1 10km以上 23 57 1013
25 10:30 不定 1 10km以上 22 65 1013
25 10:00 北東 1 10km以上 22 69 1013
25 09:30 不定 1 10km以上 21 73 1013
25 09:00 不定 1 10km以上 19 78 1013
25 08:30 西 2 10km以上 17 83 1013
25 08:00 不定 1 10km以上 16 88 1013
25 07:30 西 2 10km以上 15 88 1013
25 07:00 北西 2 10km以上 14 94 1012
25 06:30 西北西 2 10km以上 14 94 1012
25 06:00 西北西 3 10km以上 14 94 1012
25 05:30 不定 1 10km以上 14 94 1011
25 05:00 北西 2 10km以上 14 94 1011
25 04:30 北西 2 10km以上 14 94 1011
25 04:00 北西 2 10km以上 14 94 1011
25 03:30 北北西 3 10km以上 17 83 1011
25 03:00 北北西 3 10km以上 17 83 1011 弱いしゅう雨 周辺で雷
25 02:30 西 2 10km以上 16 88 1011 周辺で雷
25 02:00 不定 1 10km以上 14 94 1011
25 01:30 西北西 1 10km以上 14 94 1010
25 01:00 西北西 1 10km以上 14 94 1010
25 00:30 不定 1 10km以上 15 94 1010
25 00:00 不定 1 10km以上 15 94 1010
24 23:30 西 1 10km以上 15 88 1010
24 23:00 不定 1 10km以上 16 88 1010
24 22:30 不定 1 10km以上 17 83 1010
24 22:00 不定 1 10km以上 17 83 1009
24 21:30 静穏 0 10km以上 18 77 1009
LJLJ 260230Z 08003KT 9999 BKN040 15/13 Q1022 NOSIG
LJLJ 260200Z 08003KT 9999 BKN040 15/13 Q1022 NOSIG
LJLJ 260130Z 13004KT 9999 SCT035TCU BKN050 16/12 Q1022 NOSIG
LJLJ 260100Z 13004KT 9999 SCT035TCU BKN050 16/12 Q1022 NOSIG
LJLJ 260030Z 11006KT 9999 VCSH SCT023 BKN036TCU 16/13 Q1021 NOSIG
LJLJ 260000Z 11006KT 9999 VCSH SCT023 BKN036TCU 16/13 Q1021 NOSIG
LJLJ 252330Z 13007KT 9999 VCSH SCT022 BKN030TCU 17/13 Q1021 NOSIG
LJLJ 252300Z 12011KT 9999 BKN022TCU 17/13 Q1020 NOSIG
LJLJ 252230Z VRB02KT 9999 FEW020 SCT035 BKN060 17/14 Q1019 NOSIG
LJLJ 252200Z VRB02KT 9999 FEW025 SCT035 BKN060 17/14 Q1019 NOSIG
LJLJ 252130Z 10007KT 9999 FEW040 BKN060 17/14 Q1019 NOSIG
LJLJ 252100Z 12006KT 9999 FEW040 SCT075 17/14 Q1018 NOSIG
LJLJ 252030Z 08003KT 9999 FEW050 SCT060 BKN140 17/16 Q1018 NOSIG
LJLJ 252000Z 05003KT 300V090 9999 FEW050 BKN140 17/15 Q1017 NOSIG
LJLJ 251930Z 31004KT 9999 FEW050 BKN140 18/15 Q1017 NOSIG
LJLJ 251900Z 32006KT 9999 FEW050 SCT150 19/16 Q1016 NOSIG
LJLJ 251830Z 35001KT 9999 FEW050 SCT180 20/17 Q1016 NOSIG
LJLJ 251800Z 21003KT 9999 FEW040CB SCT180 21/17 Q1015 NOSIG
LJLJ 251730Z 22003KT 190V260 9999 FEW040CB SCT060 BKN160 22/16 Q1015 NOSIG
LJLJ 251700Z 20005KT 9999 FEW040TCU SCT060 BKN130 22/16 Q1014 NOSIG
LJLJ 251630Z 20006KT 170V230 9999 SCT040CB BKN060 22/17 Q1014 NOSIG
LJLJ 251600Z 20007KT 9999 SCT040CB BKN060 23/16 Q1013 NOSIG
LJLJ 251530Z 19007KT 160V220 9999 -SHRA SCT040TCU BKN060 23/17 Q1013 NOSIG
LJLJ 251500Z 19010KT 150V210 9999 SCT040TCU BKN060 23/16 Q1013 NOSIG
LJLJ 251430Z 19010KT 160V220 9999 SCT040TCU BKN060 24/17 Q1013 NOSIG
LJLJ 251400Z 20009KT 140V240 9999 -SHRA SCT040TCU BKN060 25/15 Q1013 NOSIG
LJLJ 251330Z 19010KT 150V220 9999 SCT040TCU BKN060 26/16 Q1013 NOSIG
LJLJ 251300Z 27003KT 220V310 9999 SCT040TCU BKN060 26/19 Q1012 NOSIG
LJLJ 251230Z VRB02KT 9999 SCT040TCU BKN060 25/18 Q1013 NOSIG
LJLJ 251200Z 00000KT 9999 SCT040TCU BKN060 24/19 Q1013 NOSIG
LJLJ 251130Z 25002KT 9999 SCT040TCU BKN060 24/18 Q1013 NOSIG
LJLJ 251100Z 12001KT 9999 -SHRA FEW040TCU SCT050 BKN060 22/19 Q1013 RETSRA NOSIG
LJLJ 251030Z 17004KT 120V220 9999 VCTS FEW040CB SCT050 BKN060 23/16 Q1013 NOSIG
LJLJ 251000Z 05002KT 9999 FEW040TCU SCT050 BKN060 24/15 Q1013 NOSIG
LJLJ 250930Z VRB02KT 9999 FEW050 SCT060 23/14 Q1013 NOSIG
LJLJ 250900Z VRB02KT 9999 FEW050 SCT060 23/14 Q1013 NOSIG
LJLJ 250830Z VRB02KT 9999 FEW040 SCT250 22/15 Q1013 NOSIG
LJLJ 250800Z 04002KT 9999 FEW040 SCT250 22/16 Q1013 NOSIG
LJLJ 250730Z VRB02KT 9999 FEW003 SCT040 21/16 Q1013 NOSIG
LJLJ 250700Z VRB01KT 9999 FEW003 SCT040 19/15 Q1013 NOSIG
LJLJ 250630Z 28003KT 250V330 9999 FEW040 BKN050 17/14 Q1013 NOSIG
LJLJ 250600Z VRB02KT 9999 FEW040 BKN050 16/14 Q1013 NOSIG
LJLJ 250530Z 28004KT 9999 SCT050 BKN070 15/13 Q1013 NOSIG
LJLJ 250500Z 31004KT 290V350 9999 SCT050 BKN070 14/13 Q1012 NOSIG
LJLJ 250430Z 29004KT 9999 SCT050 BKN070 14/13 Q1012 NOSIG
LJLJ 250400Z 29005KT 9999 SCT050 BKN070 14/13 Q1012 NOSIG
LJLJ 250330Z VRB02KT 9999 SCT050 BKN070 14/13 Q1011 NOSIG
LJLJ 250300Z 31003KT 9999 SCT050 BKN070 14/13 Q1011 NOSIG
LJLJ 250230Z 32004KT 9999 FEW035 SCT050 14/13 Q1011 NOSIG
LJLJ 250200Z 32004KT 9999 FEW035 SCT050 14/13 Q1011 NOSIG
LJLJ 250130Z 34005KT 300V060 9999 SCT035CB SCT050 BKN180 17/14 Q1011 NOSIG
LJLJ 250100Z 34005KT 300V060 9999 -SHRA VCTS SCT035CB BKN050 17/14 Q1011 RESHRA BECMG TSRA
LJLJ 250030Z 27004KT 190V290 9999 VCTS SCT050CB BKN085 16/14 Q1011 BECMG TSRA
LJLJ 250000Z VRB02KT 9999 SCT050 BKN085 14/13 Q1011 NOSIG
LJLJ 242330Z 30002KT 9999 SCT060 14/13 Q1010 NOSIG
LJLJ 242300Z 30002KT 9999 SCT060 14/13 Q1010 NOSIG
LJLJ 242230Z VRB01KT 9999 SCT060 15/14 Q1010 NOSIG
LJLJ 242200Z VRB01KT 9999 SCT060 15/14 Q1010 NOSIG
LJLJ 242130Z 27001KT 9999 SCT050 15/13 Q1010 NOSIG
LJLJ 242100Z VRB02KT 9999 SCT050 16/14 Q1010 NOSIG
LJLJ 242030Z VRB01KT 9999 SCT050 17/14 Q1010 NOSIG
LJLJ 242000Z VRB01KT 9999 SCT050 17/14 Q1009 NOSIG
LJLJ 241930Z 00000KT 9999 SCT050 18/14 Q1009 NOSIG